Time;durP1;ratioP1;P1;durP2;ratioP2;P2;SDS_P1;SDS_P2;PMS_P1;PMS_P2;Temp;Humidity;BMP_temperature;BMP_pressure;BME280_temperature;BME280_humidity;BME280_pressure;Samples;Min_cycle;Max_cycle;Signal;HPM_P1;HPM_P2
2021/12/31 00:00:10;;;;;;;4.45;4.05;;;;;;;7.44;91.56;100916.94;5009110;28;20027;-85
2021/12/31 00:02:35;;;;;;;3.92;3.60;;;;;;;7.40;91.80;100912.53;4990561;28;20074;-86
2021/12/31 00:05:00;;;;;;;4.35;3.95;;;;;;;7.42;91.63;100921.28;5003447;28;20542;-83
2021/12/31 00:07:26;;;;;;;3.88;3.58;;;;;;;7.40;91.96;100917.78;4991213;28;20173;-86
2021/12/31 00:09:51;;;;;;;4.10;3.55;;;;;;;7.45;91.44;100929.19;5006965;28;20030;-86
2021/12/31 00:12:16;;;;;;;3.88;3.55;;;;;;;7.47;91.73;100930.06;4990876;28;20018;-86
2021/12/31 00:14:42;;;;;;;4.22;3.58;;;;;;;7.39;91.61;100902.88;4991161;28;20042;-86
2021/12/31 00:17:07;;;;;;;4.30;3.72;;;;;;;7.44;91.79;100915.16;4990906;28;20021;-86
2021/12/31 00:19:38;;;;;;;3.92;3.63;;;;;;;7.49;91.64;100917.84;4991175;28;20057;-87
2021/12/31 00:22:20;;;;;;;3.70;3.07;;;;;;;7.44;91.73;100915.16;4985730;28;20093;-86
2021/12/31 00:24:45;;;;;;;4.03;3.40;;;;;;;7.50;91.56;100926.59;5002735;28;20026;-86
2021/12/31 00:27:10;;;;;;;4.18;3.75;;;;;;;7.49;91.61;100922.19;5007485;28;20022;-86
2021/12/31 00:29:36;;;;;;;4.07;3.45;;;;;;;7.50;91.96;100929.22;4981590;28;20067;-86
2021/12/31 00:32:01;;;;;;;3.83;3.47;;;;;;;7.52;91.63;100928.38;4996207;28;20038;-86
2021/12/31 00:34:26;;;;;;;4.82;3.20;;;;;;;7.52;91.85;100930.09;4990630;28;20057;-86
2021/12/31 00:36:51;;;;;;;3.58;3.13;;;;;;;7.52;91.65;100933.63;4995078;28;20027;-86
2021/12/31 00:39:17;;;;;;;3.90;3.13;;;;;;;7.44;91.92;100915.16;5000114;28;20432;-86
2021/12/31 00:41:42;;;;;;;3.90;3.33;;;;;;;7.43;91.74;100910.78;5002648;28;20191;-84
2021/12/31 00:44:08;;;;;;;3.83;3.50;;;;;;;7.53;91.57;100927.50;4988926;28;20033;-87
2021/12/31 00:46:33;;;;;;;3.65;3.28;;;;;;;7.54;91.78;100937.13;4971499;28;20031;-86
2021/12/31 00:49:02;;;;;;;3.78;3.35;;;;;;;7.56;92.05;100939.75;5006368;28;20054;-87
2021/12/31 00:51:27;;;;;;;4.38;2.92;;;;;;;7.53;91.81;100945.88;4974724;28;20786;-87
2021/12/31 00:53:53;;;;;;;3.80;3.35;;;;;;;7.55;91.93;100943.25;4974060;28;20034;-86
2021/12/31 00:56:18;;;;;;;3.38;3.08;;;;;;;7.55;91.99;100949.41;4994553;28;20022;-86
2021/12/31 00:58:43;;;;;;;3.83;3.42;;;;;;;7.56;91.72;100940.66;4997845;28;20045;-86
2021/12/31 01:01:16;;;;;;;3.47;3.17;;;;;;;7.58;91.98;100949.41;4993315;28;20369;-86
2021/12/31 01:03:41;;;;;;;4.30;3.42;;;;;;;7.58;91.88;100949.41;4978852;28;20030;-86
2021/12/31 01:06:06;;;;;;;3.97;3.55;;;;;;;7.58;91.68;100936.28;4994405;28;20034;-87
2021/12/31 01:08:32;;;;;;;3.58;3.28;;;;;;;7.57;91.71;100934.53;4994155;28;20369;-86
2021/12/31 01:10:57;;;;;;;4.38;3.33;;;;;;;7.61;91.80;100945.03;5010480;28;20038;-86
2021/12/31 01:13:31;;;;;;;3.88;3.33;;;;;;;7.60;91.80;100940.69;5004222;28;20552;-86
2021/12/31 01:16:00;;;;;;;3.83;3.17;;;;;;;7.61;91.67;100942.44;5006873;28;20069;-87
2021/12/31 01:19:43;;;;;;;4.63;3.38;;;;;;;7.63;92.05;100945.91;5000867;28;20025;-86
2021/12/31 01:21:10;;;;;;;3.47;3.15;;;;;;;7.59;91.98;100931.91;5007499;28;20026;-84
2021/12/31 01:23:35;;;;;;;3.75;3.00;;;;;;;7.55;92.04;100928.41;4993875;28;20428;-85
2021/12/31 01:26:01;;;;;;;4.22;2.88;;;;;;;7.65;91.96;100938.94;4993771;28;20039;-86
2021/12/31 01:28:26;;;;;;;7.00;3.60;;;;;;;7.65;91.76;100939.84;4994699;28;20037;-86
2021/12/31 01:30:51;;;;;;;3.30;3.00;;;;;;;7.65;92.20;100936.31;4993094;28;20073;-85
2021/12/31 01:33:17;;;;;;;4.10;3.72;;;;;;;7.68;91.79;100938.97;4974821;28;20019;-87
2021/12/31 01:35:42;;;;;;;4.03;3.55;;;;;;;7.67;92.09;100937.22;4993773;28;20057;-84
2021/12/31 01:38:07;;;;;;;3.60;3.25;;;;;;;7.65;92.03;100934.59;5010351;28;20024;-85
2021/12/31 01:40:33;;;;;;;3.42;3.13;;;;;;;7.68;91.69;100925.84;4994232;28;20042;-85
2021/12/31 01:42:58;;;;;;;5.38;3.40;;;;;;;7.67;92.00;100917.09;4993248;28;20101;-85
2021/12/31 01:45:28;;;;;;;3.83;2.75;;;;;;;7.70;91.58;100926.72;4994048;28;21294;-85
2021/12/31 01:50:18;;;;;;;2.63;2.42;;;;;;;7.70;91.95;100926.72;4994129;28;20026;-85
2021/12/31 01:52:44;;;;;;;3.22;2.80;;;;;;;7.72;92.21;100925.00;5014533;28;20451;-85
2021/12/31 01:55:11;;;;;;;3.00;2.70;;;;;;;7.73;91.88;100931.16;4991287;28;20036;-86
2021/12/31 01:57:37;;;;;;;3.05;2.75;;;;;;;7.73;92.01;100936.41;4979001;28;20472;-84
2021/12/31 02:00:03;;;;;;;3.47;3.10;;;;;;;7.70;92.11;100938.13;4979778;28;20045;-86
2021/12/31 02:02:29;;;;;;;3.50;3.05;;;;;;;7.74;92.20;100944.25;4981268;28;20027;-85
2021/12/31 02:04:54;;;;;;;2.75;2.55;;;;;;;7.77;91.89;100943.41;5010515;28;20033;-85
2021/12/31 02:07:19;;;;;;;3.65;2.58;;;;;;;7.76;91.94;100949.53;4973350;28;20029;-85
2021/12/31 02:09:52;;;;;;;2.65;2.45;;;;;;;7.76;92.07;100968.78;4991442;28;20129;-87
2021/12/31 02:12:17;;;;;;;4.03;2.97;;;;;;;7.75;91.85;100964.41;5002852;28;20034;-85
2021/12/31 02:14:43;;;;;;;2.80;2.60;;;;;;;7.77;91.97;100969.69;4979398;28;20057;-85
2021/12/31 02:17:10;;;;;;;4.65;3.17;;;;;;;7.78;92.04;100979.31;5013135;28;20049;-87
2021/12/31 02:19:36;;;;;;;3.50;3.20;;;;;;;7.80;92.11;100981.06;4981172;28;20535;-85
2021/12/31 02:22:01;;;;;;;3.20;2.90;;;;;;;7.77;92.13;100975.78;4979680;28;20022;-86
2021/12/31 02:24:27;;;;;;;2.88;2.63;;;;;;;7.79;92.23;100976.69;5013432;28;20054;-86
2021/12/31 02:26:52;;;;;;;4.60;2.80;;;;;;;7.80;91.97;100983.69;4999149;28;20041;-86
2021/12/31 02:29:18;;;;;;;3.85;3.22;;;;;;;7.78;92.24;100969.69;5000917;28;20045;-87
2021/12/31 02:31:44;;;;;;;3.30;3.00;;;;;;;7.81;92.21;100971.47;5009289;28;20173;-87
2021/12/31 02:34:10;;;;;;;3.85;3.45;;;;;;;7.81;92.30;100977.56;4982889;28;20043;-86
2021/12/31 02:36:35;;;;;;;5.18;2.60;;;;;;;7.80;92.15;100975.81;5018602;28;20046;-86
2021/12/31 02:39:00;;;;;;;3.67;2.80;;;;;;;7.83;92.08;100986.34;5017844;28;20026;-86
2021/12/31 02:41:26;;;;;;;3.10;2.80;;;;;;;7.82;91.96;100986.34;4999381;28;20093;-85
2021/12/31 02:43:51;;;;;;;3.35;3.05;;;;;;;7.86;91.97;100990.75;5018760;28;20022;-86
2021/12/31 02:46:16;;;;;;;4.90;2.88;;;;;;;7.86;92.01;100995.09;5002080;28;20026;-86
2021/12/31 02:48:43;;;;;;;3.42;2.97;;;;;;;7.88;91.91;100986.41;5017685;28;20113;-86
2021/12/31 02:51:08;;;;;;;3.58;2.95;;;;;;;7.87;91.96;100978.50;4998199;28;20026;-86
2021/12/31 02:53:39;;;;;;;3.45;3.15;;;;;;;7.87;92.01;100981.97;5016417;28;20022;-85
2021/12/31 02:56:07;;;;;;;4.07;3.63;;;;;;;7.82;92.15;100968.84;4991260;28;20100;-87
2021/12/31 02:58:33;;;;;;;3.70;3.40;;;;;;;7.88;92.28;100975.00;5002695;28;20057;-86
2021/12/31 03:00:59;;;;;;;5.68;3.75;;;;;;;7.88;91.91;100972.38;5001403;28;20038;-88
2021/12/31 03:03:24;;;;;;;3.25;2.95;;;;;;;7.88;92.30;100972.38;5002890;28;20058;-85
2021/12/31 03:05:54;;;;;;;3.50;3.20;;;;;;;7.86;91.79;100968.84;4989689;28;20029;-86
2021/12/31 03:08:21;;;;;;;3.70;3.40;;;;;;;7.91;92.11;100969.78;5014729;28;20022;-87
2021/12/31 03:10:47;;;;;;;3.15;2.85;;;;;;;7.90;92.00;100975.91;4978013;28;20026;-85
2021/12/31 03:13:14;;;;;;;3.42;3.10;;;;;;;7.88;92.10;100960.13;4999246;28;20041;-86
2021/12/31 03:15:39;;;;;;;2.88;2.58;;;;;;;7.88;92.09;100941.75;4984902;28;20077;-86
2021/12/31 03:18:06;;;;;;;4.30;3.03;;;;;;;7.91;92.12;100964.53;5008528;28;20431;-87
2021/12/31 03:20:40;;;;;;;3.03;2.78;;;;;;;7.91;91.93;100961.88;4991593;28;20045;-86
2021/12/31 03:23:06;;;;;;;2.95;2.75;;;;;;;7.93;91.74;100966.28;4977198;28;20032;-86
2021/12/31 03:25:32;;;;;;;4.05;2.97;;;;;;;7.88;91.92;100961.88;4975741;28;20112;-86
2021/12/31 03:27:57;;;;;;;4.47;3.42;;;;;;;7.90;92.03;100971.50;4971954;28;20484;-87
2021/12/31 03:30:23;;;;;;;2.95;2.72;;;;;;;7.92;91.96;100976.78;4993597;28;20045;-84
2021/12/31 03:32:48;;;;;;;3.35;3.05;;;;;;;7.92;92.19;100985.53;4974936;28;20018;-87
2021/12/31 03:35:16;;;;;;;3.28;3.08;;;;;;;7.92;91.98;100989.91;4991488;28;20026;-85
2021/12/31 03:37:42;;;;;;;4.72;3.42;;;;;;;7.94;91.86;100993.44;4992282;28;20069;-86
2021/12/31 03:40:07;;;;;;;3.30;3.00;;;;;;;7.95;91.98;100990.81;4989308;28;20035;-84
2021/12/31 03:42:33;;;;;;;3.92;3.53;;;;;;;7.94;92.21;100994.28;4998827;28;20508;-86
2021/12/31 03:44:58;;;;;;;3.47;3.08;;;;;;;7.97;91.83;100982.94;4994177;28;20477;-87
2021/12/31 03:47:23;;;;;;;3.50;3.20;;;;;;;7.95;92.01;100989.94;4989809;28;20073;-86
2021/12/31 03:49:49;;;;;;;3.33;3.03;;;;;;;7.96;92.06;100989.06;5006238;28;20097;-87
2021/12/31 03:52:14;;;;;;;3.72;3.13;;;;;;;7.94;91.98;100982.94;4994547;28;20022;-87
2021/12/31 03:54:39;;;;;;;3.97;2.85;;;;;;;7.96;92.17;100982.06;4993678;28;20108;-86
2021/12/31 03:57:05;;;;;;;3.75;3.33;;;;;;;7.97;91.92;100980.31;4989112;28;20653;-87
2021/12/31 03:59:30;;;;;;;3.58;3.28;;;;;;;7.97;92.29;100975.03;4989404;28;20038;-87
2021/12/31 04:01:55;;;;;;;3.65;3.35;;;;;;;7.97;92.13;100972.41;4969863;28;20022;-87
2021/12/31 04:04:21;;;;;;;4.03;3.63;;;;;;;7.99;91.90;100981.19;4989689;28;20517;-86
2021/12/31 04:06:46;;;;;;;4.45;3.22;;;;;;;7.99;91.85;100967.19;4991171;28;20041;-86
2021/12/31 04:09:11;;;;;;;3.38;3.08;;;;;;;8.01;92.05;100970.72;5006236;28;20026;-87
2021/12/31 04:11:37;;;;;;;4.80;4.30;;;;;;;8.00;92.18;100953.19;5007007;28;20041;-87
2021/12/31 04:14:02;;;;;;;4.22;3.45;;;;;;;8.01;92.39;100958.47;4991207;28;20026;-86
2021/12/31 04:16:27;;;;;;;4.28;3.78;;;;;;;7.99;92.20;100949.69;5007082;28;20603;-87
2021/12/31 04:18:52;;;;;;;5.18;3.95;;;;;;;8.00;91.87;100961.94;4990689;28;20034;-85
2021/12/31 04:21:20;;;;;;;5.00;3.63;;;;;;;8.02;92.08;100965.47;4990450;28;20046;-86
2021/12/31 04:24:08;;;;;;;3.40;3.10;;;;;;;8.03;91.75;100964.59;4974975;28;20160;-87
2021/12/31 04:26:33;;;;;;;4.63;3.33;;;;;;;8.04;92.35;100962.84;5002137;28;20081;-86
2021/12/31 04:28:58;;;;;;;5.05;3.42;;;;;;;8.04;92.05;100960.22;4990668;28;20439;-86
2021/12/31 04:31:24;;;;;;;3.80;3.40;;;;;;;8.02;92.24;100957.59;4990656;28;20093;-86
2021/12/31 04:33:49;;;;;;;3.15;2.85;;;;;;;8.02;91.82;100957.59;4990933;28;20526;-86
2021/12/31 04:36:15;;;;;;;4.03;3.63;;;;;;;8.04;91.99;100961.09;4980935;28;20042;-87
2021/12/31 04:38:40;;;;;;;3.42;3.17;;;;;;;8.06;92.21;100963.72;4974476;28;20026;-87
2021/12/31 04:41:06;;;;;;;4.38;3.13;;;;;;;8.03;91.95;100954.09;4990696;28;20102;-85
2021/12/31 04:43:31;;;;;;;4.45;3.70;;;;;;;8.07;91.96;100969.00;4990619;28;20507;-87
2021/12/31 04:45:56;;;;;;;3.92;3.33;;;;;;;8.06;92.15;100958.47;5007526;28;20087;-86
2021/12/31 04:48:22;;;;;;;4.38;3.55;;;;;;;8.08;92.21;100965.47;4983164;28;20100;-84
2021/12/31 04:50:47;;;;;;;3.63;3.33;;;;;;;8.07;91.99;100955.84;4983553;28;20389;-86
2021/12/31 04:53:13;;;;;;;4.32;3.92;;;;;;;8.08;92.27;100960.22;4974340;28;20030;-86
2021/12/31 04:55:38;;;;;;;4.00;3.60;;;;;;;8.07;92.00;100963.72;4992858;28;20162;-86
2021/12/31 04:58:03;;;;;;;3.50;3.20;;;;;;;8.08;92.25;100960.22;4991073;28;20034;-87
2021/12/31 05:00:29;;;;;;;3.40;3.10;;;;;;;8.04;92.26;100955.81;5005648;28;20757;-86
2021/12/31 05:02:54;;;;;;;3.97;3.63;;;;;;;8.07;92.33;100958.47;4971326;28;20027;-86
2021/12/31 05:05:20;;;;;;;4.38;3.60;;;;;;;8.06;92.14;100951.47;4990311;28;20030;-87
2021/12/31 05:07:45;;;;;;;4.03;3.72;;;;;;;8.09;92.30;100950.63;5007020;28;20038;-86
2021/12/31 05:10:10;;;;;;;3.80;3.28;;;;;;;8.13;92.27;100956.78;4987580;28;20023;-87
2021/12/31 05:12:37;;;;;;;5.05;3.25;;;;;;;8.11;91.93;100948.00;4987956;28;20054;-87
2021/12/31 05:15:06;;;;;;;3.53;3.22;;;;;;;8.13;92.19;100960.25;4979882;28;20403;-87
2021/12/31 05:17:32;;;;;;;3.47;3.17;;;;;;;8.13;91.99;100952.38;4990707;28;20018;-86
2021/12/31 05:19:57;;;;;;;3.60;3.10;;;;;;;8.12;92.04;100950.63;5006335;28;20030;-86
2021/12/31 05:22:22;;;;;;;3.65;3.00;;;;;;;8.13;92.00;100954.16;4990577;28;20048;-87
2021/12/31 05:24:48;;;;;;;3.60;3.30;;;;;;;8.14;91.80;100953.28;4990155;28;20827;-86
2021/12/31 05:27:13;;;;;;;3.13;2.83;;;;;;;8.12;92.27;100948.00;4990713;28;20022;-86
2021/12/31 05:29:39;;;;;;;3.58;3.25;;;;;;;8.11;91.96;100959.41;4990468;28;20030;-87
2021/12/31 05:32:04;;;;;;;3.55;3.25;;;;;;;8.09;92.00;100951.50;4986597;28;20026;-86
2021/12/31 05:34:30;;;;;;;4.32;3.25;;;;;;;8.08;91.99;100946.25;4984576;28;20018;-86
2021/12/31 05:36:55;;;;;;;3.38;3.08;;;;;;;8.06;91.77;100937.44;4968246;28;20031;-87
2021/12/31 05:39:20;;;;;;;3.97;3.60;;;;;;;8.16;92.24;100962.91;4990298;28;20077;-87
2021/12/31 05:41:46;;;;;;;4.07;3.40;;;;;;;8.14;91.99;100954.13;5001889;28;20027;-87
2021/12/31 05:44:11;;;;;;;5.18;3.38;;;;;;;8.13;92.08;100954.16;4977778;28;20053;-87
2021/12/31 05:46:36;;;;;;;3.13;2.83;;;;;;;8.17;91.78;100969.06;4993528;28;20400;-87
2021/12/31 05:49:03;;;;;;;3.67;3.38;;;;;;;8.17;91.91;100963.81;4990278;28;20496;-87
2021/12/31 05:51:30;;;;;;;4.20;3.80;;;;;;;8.16;92.26;100970.78;4991275;28;20168;-86
2021/12/31 05:53:55;;;;;;;4.93;3.38;;;;;;;8.17;92.19;100971.69;5002920;28;20124;-89
2021/12/31 05:56:20;;;;;;;3.40;3.10;;;;;;;8.11;92.27;100961.13;5009243;28;20060;-88
2021/12/31 05:58:46;;;;;;;3.85;3.50;;;;;;;8.17;92.17;100969.91;4993637;28;20076;-89
2021/12/31 06:01:11;;;;;;;5.43;3.63;;;;;;;8.18;91.94;100965.56;4993287;28;20058;-86
2021/12/31 06:03:36;;;;;;;3.67;2.85;;;;;;;8.17;91.93;100955.94;5008238;28;20511;-87
2021/12/31 06:06:02;;;;;;;3.10;2.80;;;;;;;8.18;91.98;100958.56;4993642;28;20388;-87
2021/12/31 06:08:27;;;;;;;3.92;3.25;;;;;;;8.19;92.10;100962.06;4992608;28;20053;-88
2021/12/31 06:10:52;;;;;;;3.55;3.25;;;;;;;8.17;92.19;100963.81;4993027;28;20026;-87
2021/12/31 06:13:18;;;;;;;4.32;3.15;;;;;;;8.18;92.27;100971.69;5009450;28;20042;-87
2021/12/31 06:15:44;;;;;;;3.65;3.35;;;;;;;8.21;92.12;100976.09;4976420;28;20177;-88
2021/12/31 06:18:10;;;;;;;3.90;2.92;;;;;;;8.20;92.16;100974.31;4993069;28;20045;-87
2021/12/31 06:20:36;;;;;;;3.50;3.20;;;;;;;8.19;92.25;100969.94;4976691;28;20488;-86
2021/12/31 06:23:01;;;;;;;3.63;3.33;;;;;;;8.18;92.08;100974.31;4993252;28;20393;-90
2021/12/31 06:25:27;;;;;;;3.95;3.47;;;;;;;8.21;92.05;100970.84;5005530;28;20038;-88
2021/12/31 06:27:53;;;;;;;3.10;2.80;;;;;;;8.23;92.27;100983.97;5004609;28;20059;-89
2021/12/31 06:30:18;;;;;;;4.00;3.70;;;;;;;8.21;92.05;100986.59;4992147;28;20019;-87
2021/12/31 06:32:44;;;;;;;3.67;3.38;;;;;;;8.18;92.41;100981.31;4989814;28;20030;-86
2021/12/31 06:35:09;;;;;;;4.40;4.00;;;;;;;8.22;92.19;100998.84;4991299;28;20054;-87
2021/12/31 06:37:35;;;;;;;3.55;3.25;;;;;;;8.23;92.33;101003.22;5009733;28;20097;-87
2021/12/31 06:40:04;;;;;;;2.90;2.70;;;;;;;8.24;92.33;101001.50;4992783;28;20476;-87
2021/12/31 06:42:29;;;;;;;5.13;3.30;;;;;;;8.23;92.03;101003.22;4976850;28;20026;-88
2021/12/31 06:44:58;;;;;;;3.08;2.78;;;;;;;8.24;92.13;101002.38;4991711;28;20065;-88
2021/12/31 06:47:23;;;;;;;3.75;3.30;;;;;;;8.22;92.01;101004.13;4992081;28;20035;-87
2021/12/31 06:49:48;;;;;;;3.65;2.90;;;;;;;8.20;92.09;101001.47;4992917;28;20037;-87
2021/12/31 06:52:14;;;;;;;3.92;3.00;;;;;;;8.27;92.20;101001.53;4991817;28;20026;-87
2021/12/31 06:54:39;;;;;;;3.40;3.10;;;;;;;8.26;92.41;100995.38;4976311;28;20041;-87
2021/12/31 06:57:04;;;;;;;4.10;2.88;;;;;;;8.25;92.12;100992.75;4988884;28;20037;-87
2021/12/31 06:59:31;;;;;;;3.70;3.40;;;;;;;8.27;92.19;101006.78;4989851;28;20026;-87
2021/12/31 07:01:57;;;;;;;5.55;3.65;;;;;;;8.28;92.22;101008.53;4990708;28;20137;-87
2021/12/31 07:04:23;;;;;;;4.63;3.42;;;;;;;8.28;92.43;101001.53;4987800;28;20544;-87
2021/12/31 07:06:48;;;;;;;3.38;3.08;;;;;;;8.28;92.29;101005.91;4979124;28;20022;-88
2021/12/31 07:09:13;;;;;;;4.28;3.88;;;;;;;8.21;92.12;100986.59;5008267;28;20030;-87
2021/12/31 07:11:39;;;;;;;4.90;3.33;;;;;;;8.29;92.32;101003.28;4975279;28;20027;-86
2021/12/31 07:14:04;;;;;;;4.18;3.75;;;;;;;8.28;92.16;101001.53;4991436;28;20030;-86
2021/12/31 07:16:29;;;;;;;3.80;3.30;;;;;;;8.27;92.20;101001.53;4991854;28;20050;-87
2021/12/31 07:18:55;;;;;;;5.10;3.55;;;;;;;8.21;92.28;100987.47;4989689;28;20041;-87
2021/12/31 07:21:20;;;;;;;5.50;3.75;;;;;;;8.30;92.14;101009.44;4991275;28;20039;-87
2021/12/31 07:23:45;;;;;;;3.95;3.65;;;;;;;8.28;92.03;101003.28;4991540;28;20088;-87
2021/12/31 07:26:10;;;;;;;4.22;3.80;;;;;;;8.31;92.24;101005.94;5006835;28;20400;-87
2021/12/31 07:28:36;;;;;;;5.35;3.63;;;;;;;8.29;92.15;101011.16;4991641;28;20053;-87
2021/12/31 07:31:01;;;;;;;5.00;3.60;;;;;;;8.24;92.20;101002.38;4983939;28;20023;-87
2021/12/31 07:33:28;;;;;;;3.85;3.50;;;;;;;8.30;92.09;101007.66;4991222;28;20060;-86
2021/12/31 07:35:53;;;;;;;4.07;3.75;;;;;;;8.33;92.30;101012.94;4975756;28;20041;-87
2021/12/31 07:38:27;;;;;;;3.88;3.25;;;;;;;8.32;92.27;101018.19;4991196;28;20030;-85
2021/12/31 07:40:53;;;;;;;4.60;4.20;;;;;;;8.33;92.46;101018.19;4992405;28;20058;-86
2021/12/31 07:43:20;;;;;;;4.30;3.60;;;;;;;8.33;92.29;101015.56;4991181;28;20057;-86
2021/12/31 07:45:45;;;;;;;5.10;3.80;;;;;;;8.30;92.41;101010.28;4975573;28;20061;-86
2021/12/31 07:48:11;;;;;;;6.13;4.05;;;;;;;8.34;92.28;101019.94;4990862;28;20488;-85
2021/12/31 07:50:36;;;;;;;4.43;4.03;;;;;;;8.30;92.38;101015.53;4975428;28;20076;-86
2021/12/31 07:53:06;;;;;;;5.20;3.80;;;;;;;8.34;92.35;101019.94;5000733;28;20015;-87
2021/12/31 07:55:31;;;;;;;5.03;4.00;;;;;;;8.34;92.49;101016.47;4974369;28;20038;-86
2021/12/31 07:57:57;;;;;;;6.40;4.47;;;;;;;8.32;92.55;101007.66;5007483;28;20026;-87
2021/12/31 08:00:22;;;;;;;4.50;3.88;;;;;;;8.38;92.33;101012.09;5007784;28;20373;-87
2021/12/31 08:02:48;;;;;;;4.25;3.85;;;;;;;8.35;92.52;101012.94;4990559;28;20037;-85
2021/12/31 08:05:14;;;;;;;4.85;4.35;;;;;;;8.32;92.52;101000.69;4986136;28;20030;-86
2021/12/31 08:07:39;;;;;;;4.68;4.03;;;;;;;8.33;92.38;101007.69;4974597;28;20040;-84
2021/12/31 08:10:05;;;;;;;4.35;3.95;;;;;;;8.33;92.20;101005.06;4988756;28;20026;-87
2021/12/31 08:12:30;;;;;;;4.63;3.88;;;;;;;8.33;92.39;100994.53;4971867;28;20473;-87
2021/12/31 08:14:55;;;;;;;4.30;3.90;;;;;;;8.39;92.37;101013.84;4974942;28;20030;-87
2021/12/31 08:17:21;;;;;;;3.78;3.40;;;;;;;8.38;92.30;101004.19;4990917;28;20418;-87
2021/12/31 08:19:46;;;;;;;5.20;4.05;;;;;;;8.36;92.35;100996.31;5000133;28;20023;-86
2021/12/31 08:22:11;;;;;;;5.63;4.25;;;;;;;8.32;92.34;100981.38;4990536;28;20049;-86
2021/12/31 08:24:36;;;;;;;4.60;3.95;;;;;;;8.39;92.25;100996.31;4978780;28;20054;-87
2021/12/31 08:27:02;;;;;;;5.05;3.80;;;;;;;8.40;92.30;100991.97;5002535;28;20476;-86
2021/12/31 08:29:27;;;;;;;4.35;3.90;;;;;;;8.39;92.33;101001.59;4987789;28;20057;-86
2021/12/31 08:31:52;;;;;;;5.25;3.63;;;;;;;8.39;92.38;100995.44;4987968;28;20899;-86
2021/12/31 08:34:18;;;;;;;4.47;4.07;;;;;;;8.40;92.08;101002.47;4990362;28;20033;-87
2021/12/31 08:36:43;;;;;;;4.53;4.10;;;;;;;8.31;92.31;100988.38;4990796;28;20030;-87
2021/12/31 08:39:11;;;;;;;5.45;4.90;;;;;;;8.38;92.25;100988.44;4990761;28;20029;-84
2021/12/31 08:41:38;;;;;;;4.57;4.18;;;;;;;8.42;92.30;101001.59;4991933;28;20057;-87
2021/12/31 08:44:04;;;;;;;4.93;4.15;;;;;;;8.43;92.38;100997.19;5006665;28;20023;-87
2021/12/31 08:46:31;;;;;;;4.45;3.92;;;;;;;8.42;92.38;100993.72;4972474;28;20022;-87
2021/12/31 08:48:58;;;;;;;6.13;4.72;;;;;;;8.44;92.35;100988.47;5003615;28;20027;-86
2021/12/31 08:51:25;;;;;;;4.85;4.35;;;;;;;8.43;92.34;100991.94;4987606;28;20038;-87
2021/12/31 08:53:52;;;;;;;4.68;4.22;;;;;;;8.41;92.06;100978.78;4988951;28;20029;-87
2021/12/31 08:56:17;;;;;;;4.75;4.28;;;;;;;8.43;92.31;100977.06;5006936;28;20018;-85
2021/12/31 08:58:42;;;;;;;4.60;4.20;;;;;;;8.42;92.37;100972.69;5006105;28;20595;-86
2021/12/31 09:01:08;;;;;;;5.88;4.57;;;;;;;8.41;92.50;100970.06;5006616;28;20498;-87
2021/12/31 09:03:33;;;;;;;4.90;4.40;;;;;;;8.44;92.45;100973.56;4987583;28;20030;-87
2021/12/31 09:05:58;;;;;;;5.28;4.78;;;;;;;8.43;92.19;100970.91;4989995;28;20034;-87
2021/12/31 09:08:24;;;;;;;5.50;4.82;;;;;;;8.42;92.18;100963.91;4974614;28;20034;-84
2021/12/31 09:10:50;;;;;;;6.65;4.85;;;;;;;8.47;92.28;100970.94;4977754;28;20029;-87
2021/12/31 09:13:15;;;;;;;5.95;4.60;;;;;;;8.37;92.26;100950.75;5006341;28;20030;-87
2021/12/31 09:15:41;;;;;;;5.18;4.38;;;;;;;8.47;92.25;100970.06;4989984;28;20083;-88
2021/12/31 09:18:06;;;;;;;6.43;4.97;;;;;;;8.42;92.34;100950.78;4993509;28;20027;-87
2021/12/31 09:20:32;;;;;;;5.15;4.65;;;;;;;8.51;92.33;100961.34;4973922;28;20038;-86
2021/12/31 09:22:57;;;;;;;5.25;4.57;;;;;;;8.48;92.33;100962.19;4992486;28;20041;-86
2021/12/31 09:25:23;;;;;;;5.43;4.82;;;;;;;8.47;92.38;100962.16;5008101;28;20019;-86
2021/12/31 09:27:48;;;;;;;5.15;4.65;;;;;;;8.52;92.46;100957.84;5010057;28;20023;-86
2021/12/31 09:30:14;;;;;;;5.97;5.07;;;;;;;8.53;92.55;100962.25;4979672;28;20391;-86
2021/12/31 09:32:39;;;;;;;6.20;5.60;;;;;;;8.55;92.48;100957.00;4992991;28;20022;-86
2021/12/31 09:35:06;;;;;;;6.00;5.30;;;;;;;8.55;92.42;100960.50;4993140;28;20022;-87
2021/12/31 09:37:31;;;;;;;5.30;4.80;;;;;;;8.56;92.43;100949.13;5012668;28;20041;-87
2021/12/31 09:39:56;;;;;;;5.43;4.93;;;;;;;8.56;92.21;100949.13;4988574;28;20026;-87
2021/12/31 09:42:44;;;;;;;7.97;4.85;;;;;;;8.58;92.70;100946.50;4992700;28;20514;-88
2021/12/31 09:45:14;;;;;;;6.30;4.93;;;;;;;8.56;92.59;100949.13;4991376;28;20027;-87
2021/12/31 09:47:41;;;;;;;5.80;4.90;;;;;;;8.60;92.72;100956.13;4979982;28;20029;-85
2021/12/31 09:50:07;;;;;;;4.70;4.30;;;;;;;8.59;92.51;100949.13;4996570;28;20018;-85
2021/12/31 09:52:34;;;;;;;6.65;4.28;;;;;;;8.60;92.86;100937.72;5011867;28;20472;-86
2021/12/31 09:55:04;;;;;;;4.97;4.53;;;;;;;8.58;92.63;100942.09;4996382;28;20034;-89
2021/12/31 09:57:29;;;;;;;4.95;4.45;;;;;;;8.59;92.66;100941.25;4996175;28;20026;-87
2021/12/31 10:00:00;;;;;;;8.52;5.13;;;;;;;8.56;92.64;100935.97;4995913;28;20037;-88
2021/12/31 10:02:33;;;;;;;4.97;4.53;;;;;;;8.62;92.82;100929.84;4995099;28;20061;-88
2021/12/31 10:04:59;;;;;;;5.60;4.82;;;;;;;8.57;92.72;100927.19;4995419;28;20384;-89
2021/12/31 10:07:28;;;;;;;4.75;4.32;;;;;;;8.68;92.55;100940.41;4994285;28;20030;-87
2021/12/31 10:10:08;;;;;;;5.90;5.10;;;;;;;8.59;92.54;100928.09;4994560;28;20410;-88
2021/12/31 10:12:56;;;;;;;5.03;4.53;;;;;;;8.67;92.73;100935.13;4994611;28;20026;-87
2021/12/31 10:15:24;;;;;;;7.63;5.07;;;;;;;8.67;92.49;100935.13;4979072;28;20041;-88
2021/12/31 10:17:50;;;;;;;4.97;4.47;;;;;;;8.57;92.69;100914.06;4995426;28;20022;-87
2021/12/31 10:20:15;;;;;;;4.97;4.40;;;;;;;8.73;92.95;100929.88;4996260;28;20034;-88
2021/12/31 10:22:40;;;;;;;4.97;4.47;;;;;;;8.69;92.71;100925.47;4997502;28;20392;-90
2021/12/31 10:25:20;;;;;;;7.75;4.70;;;;;;;8.71;92.73;100907.97;4997423;28;20066;-88
2021/12/31 10:27:45;;;;;;;5.22;4.13;;;;;;;8.56;92.92;100872.88;4980234;28;20531;-88
2021/12/31 10:30:15;;;;;;;4.85;4.38;;;;;;;8.75;92.92;100909.72;4981103;28;20022;-87
2021/12/31 10:32:46;;;;;;;4.65;4.25;;;;;;;8.66;92.55;100893.91;4979745;28;20065;-87
2021/12/31 10:35:19;;;;;;;4.82;4.07;;;;;;;8.68;92.76;100887.81;4996841;28;20022;-86
2021/12/31 10:37:47;;;;;;;7.13;3.80;;;;;;;8.85;92.61;100914.16;4998477;28;20531;-87
2021/12/31 10:40:36;;;;;;;4.93;4.03;;;;;;;8.79;92.49;100905.34;4994196;28;20435;-86
2021/12/31 10:43:16;;;;;;;4.55;4.15;;;;;;;8.75;92.93;100904.47;4993815;28;20018;-89
2021/12/31 10:46:05;;;;;;;7.23;4.50;;;;;;;8.83;92.42;100926.41;4977666;28;20029;-88
2021/12/31 10:48:50;;;;;;;4.45;3.72;;;;;;;8.83;92.67;100923.78;4993721;28;20316;-87
2021/12/31 10:51:39;;;;;;;5.30;4.03;;;;;;;8.83;92.77;100915.00;4978042;28;20117;-87
2021/12/31 10:54:31;;;;;;;4.43;3.90;;;;;;;8.80;92.68;100917.63;4977275;28;20057;-87
2021/12/31 10:56:58;;;;;;;4.80;4.22;;;;;;;8.79;92.62;100923.75;4978744;28;20066;-86
2021/12/31 10:59:23;;;;;;;4.93;4.43;;;;;;;8.78;92.69;100925.53;4993821;28;20030;-86
2021/12/31 11:01:49;;;;;;;5.07;4.57;;;;;;;8.88;92.66;100936.06;4977210;28;20022;-87
2021/12/31 11:04:16;;;;;;;4.80;4.38;;;;;;;8.77;92.44;100923.75;4993021;28;20030;-91
2021/12/31 11:06:42;;;;;;;5.10;4.13;;;;;;;8.79;92.84;100927.28;4976885;28;20499;-88
2021/12/31 11:09:08;;;;;;;4.63;4.00;;;;;;;8.84;92.78;100941.31;4992791;28;20019;-88
2021/12/31 11:11:37;;;;;;;4.93;4.45;;;;;;;8.83;92.71;100934.28;4992792;28;20388;-87
2021/12/31 11:14:03;;;;;;;5.28;4.82;;;;;;;8.84;92.54;100933.41;4986290;28;20030;-88
2021/12/31 11:16:29;;;;;;;5.35;4.50;;;;;;;8.89;92.59;100938.69;4975661;28;20369;-88
2021/12/31 11:18:55;;;;;;;5.38;4.60;;;;;;;8.87;92.74;100923.78;4983816;28;20053;-87
2021/12/31 11:21:20;;;;;;;5.38;4.50;;;;;;;8.88;92.60;100928.16;4998292;28;20026;-87
2021/12/31 11:23:46;;;;;;;6.65;4.90;;;;;;;8.89;92.46;100922.91;4997017;28;20053;-87
2021/12/31 11:26:11;;;;;;;5.25;4.75;;;;;;;8.87;92.42;100914.13;4989108;28;20361;-88
2021/12/31 11:28:43;;;;;;;4.65;4.25;;;;;;;8.88;92.54;100915.00;4970377;28;20030;-87
2021/12/31 11:31:20;;;;;;;5.22;4.60;;;;;;;8.92;92.38;100922.03;4973880;28;20110;-88
2021/12/31 11:33:46;;;;;;;4.40;4.00;;;;;;;8.91;92.46;100925.53;5006691;28;20025;-87